Leander, Texas
Current Conditions -  °F | °C
As of 12:35 AM on Thursday 23 Oct 2014 (Local Time) from KRYW Reporting Station
Clear Clear  
Wind Chill: 71°   Ceiling: Unl
Heat Index: 71°   Visibility: 10mi
Dew Point: 57°   Wind: 6mph
Humidity: 62%   Direction: 90°E
Pressure: 30.12"   Gusts: NA
Location:  30.56°N, 97.86°W
Report Text: KRYW 230535Z AUTO 09005KT 10SM CLR 22/14 A3012 RMK AO2 T02150140
Loading
Personal Weather Stations






























Interactive Weather Map
Tropical Storm Tracking
New forecast layout! Learn more

10-Day Weather Forecast

Advertisements
Track Severe Weather on mobile